Time,TemperatureF,DewpointF,PressureIn,WindDirection,WindDirectionDegrees,WindSpeedMPH,WindSpeedGustMPH,Humidity,HourlyPrecipIn,Conditions,Clouds,dailyrainin,SoftwareType,DateUTC
2013-02-19 00:14:00,52.7,36.5,29.70,South,180,8.3,-999.0,54,-99.99,,,0.00,Acu-Link.com,2013-02-19 06:14:00,
2013-02-19 00:29:00,52.5,36.8,29.70,South,180,6.3,-999.0,55,-99.99,,,0.00,Acu-Link.com,2013-02-19 06:29:00,
2013-02-19 00:44:00,52.5,36.8,29.68,SSW,202,10.4,-999.0,55,-99.99,,,0.00,Acu-Link.com,2013-02-19 06:44:00,
2013-02-19 00:59:00,51.6,38.2,29.70,South,180,8.3,-999.0,60,-99.99,,,0.00,Acu-Link.com,2013-02-19 06:59:00,
2013-02-19 01:14:00,48.2,44.8,29.71,South,180,3.7,-999.0,88,-99.99,,,0.02,Acu-Link.com,2013-02-19 07:14:00,
2013-02-19 01:29:00,45.1,44.6,29.72,North,0,0.0,-999.0,98,-99.99,,,0.05,Acu-Link.com,2013-02-19 07:29:00,
2013-02-19 01:44:00,44.1,43.6,29.70,North,0,1.1,-999.0,98,-99.99,,,0.08,Acu-Link.com,2013-02-19 07:44:00,
2013-02-19 02:00:00,43.5,43.0,29.76,NW,315,5.3,-999.0,98,-99.99,,,0.09,Acu-Link.com,2013-02-19 08:00:00,
2013-02-19 02:15:00,43.5,43.0,29.79,North,0,2.7,-999.0,98,-99.99,,,0.16,Acu-Link.com,2013-02-19 08:15:00,
2013-02-19 02:30:00,43.7,43.2,29.78,ENE,67,3.2,-999.0,98,-99.99,,,0.25,Acu-Link.com,2013-02-19 08:30:00,
2013-02-19 02:45:00,43.7,43.2,29.76,North,0,1.7,-999.0,98,-99.99,,,0.30,Acu-Link.com,2013-02-19 08:45:00,
2013-02-19 03:00:00,43.5,43.0,29.77,North,0,0.0,-999.0,98,-99.99,,,0.31,Acu-Link.com,2013-02-19 09:00:00,
2013-02-19 03:17:00,43.5,43.0,29.77,North,0,0.0,-999.0,98,-99.99,,,0.31,Acu-Link.com,2013-02-19 09:17:00,
2013-02-19 03:32:00,43.7,43.2,29.75,ESE,112,1.7,-999.0,98,-99.99,,,0.36,Acu-Link.com,2013-02-19 09:32:00,
2013-02-19 03:47:00,43.5,43.0,29.75,NNW,337,2.7,-999.0,98,-99.99,,,0.38,Acu-Link.com,2013-02-19 09:47:00,
2013-02-19 04:03:00,43.5,43.0,29.75,ESE,112,2.2,-999.0,98,-99.99,,,0.40,Acu-Link.com,2013-02-19 10:03:00,
2013-02-19 04:18:00,43.5,43.0,29.73,ESE,112,1.7,-999.0,98,-99.99,,,0.41,Acu-Link.com,2013-02-19 10:18:00,
2013-02-19 04:33:00,43.7,43.2,29.72,East,90,3.2,-999.0,98,-99.99,,,0.42,Acu-Link.com,2013-02-19 10:33:00,
2013-02-19 04:48:00,43.2,42.7,29.71,ESE,112,3.7,-999.0,98,-99.99,,,0.42,Acu-Link.com,2013-02-19 10:48:00,
2013-02-19 05:03:00,43.3,42.8,29.72,NNW,337,0.0,-999.0,98,-99.99,,,0.42,Acu-Link.com,2013-02-19 11:03:00,
2013-02-19 05:18:00,43.3,42.8,29.71,NNW,337,1.1,-999.0,98,-99.99,,,0.42,Acu-Link.com,2013-02-19 11:18:00,
2013-02-19 05:34:00,43.2,42.7,29.71,NNW,337,0.0,-999.0,98,-99.99,,,0.42,Acu-Link.com,2013-02-19 11:34:00,
2013-02-19 05:49:00,43.0,42.5,29.71,NNW,337,1.1,-999.0,98,-99.99,,,0.42,Acu-Link.com,2013-02-19 11:49:00,
2013-02-19 06:04:00,42.6,42.1,29.71,NNW,337,0.0,-999.0,98,-99.99,,,0.42,Acu-Link.com,2013-02-19 12:04:00,
2013-02-19 06:19:00,42.6,42.1,29.72,NNW,337,0.0,-999.0,98,-99.99,,,0.42,Acu-Link.com,2013-02-19 12:19:00,
2013-02-19 06:34:00,42.6,42.1,29.72,NNW,337,1.1,-999.0,98,-99.99,,,0.42,Acu-Link.com,2013-02-19 12:34:00,
2013-02-19 06:49:00,43.0,42.5,29.73,NNW,337,0.0,-999.0,98,-99.99,,,0.42,Acu-Link.com,2013-02-19 12:49:00,
2013-02-19 07:04:00,43.3,42.8,29.74,NNW,337,0.0,-999.0,98,-99.99,,,0.42,Acu-Link.com,2013-02-19 13:04:00,
2013-02-19 07:19:00,43.7,43.2,29.75,NNW,337,3.2,-999.0,98,-99.99,,,0.42,Acu-Link.com,2013-02-19 13:19:00,
2013-02-19 07:34:00,44.1,43.6,29.76,North,0,2.2,-999.0,98,-99.99,,,0.43,Acu-Link.com,2013-02-19 13:34:00,
2013-02-19 07:50:00,45.0,44.5,29.78,North,0,2.2,-999.0,98,-99.99,,,0.43,Acu-Link.com,2013-02-19 13:50:00,
2013-02-19 08:05:00,45.5,45.0,29.78,North,0,0.0,-999.0,98,-99.99,,,0.43,Acu-Link.com,2013-02-19 14:05:00,
2013-02-19 08:20:00,46.2,45.7,29.78,North,0,0.0,-999.0,98,-99.99,,,0.43,Acu-Link.com,2013-02-19 14:20:00,
2013-02-19 08:35:00,46.6,46.1,29.79,North,0,0.0,-999.0,98,-99.99,,,0.43,Acu-Link.com,2013-02-19 14:35:00,
2013-02-19 08:50:00,47.1,46.6,29.80,North,0,2.2,-999.0,98,-99.99,,,0.43,Acu-Link.com,2013-02-19 14:50:00,
2013-02-19 09:05:00,48.2,47.7,29.80,North,0,2.7,-999.0,98,-99.99,,,0.43,Acu-Link.com,2013-02-19 15:05:00,
2013-02-19 09:20:00,48.7,48.2,29.80,North,0,3.7,-999.0,98,-99.99,,,0.43,Acu-Link.com,2013-02-19 15:20:00,
2013-02-19 09:35:00,49.1,48.6,29.80,West,270,4.7,-999.0,98,-99.99,,,0.43,Acu-Link.com,2013-02-19 15:35:00,
2013-02-19 09:50:00,49.1,48.6,29.81,North,0,4.7,-999.0,98,-99.99,,,0.43,Acu-Link.com,2013-02-19 15:50:00,
2013-02-19 10:05:00,49.1,48.6,29.81,WSW,247,4.2,-999.0,98,-99.99,,,0.43,Acu-Link.com,2013-02-19 16:05:00,
2013-02-19 10:21:00,50.5,50.0,29.82,NW,315,5.8,-999.0,98,-99.99,,,0.43,Acu-Link.com,2013-02-19 16:21:00,
2013-02-19 10:36:00,52.0,51.5,29.82,North,0,6.3,-999.0,98,-99.99,,,0.43,Acu-Link.com,2013-02-19 16:36:00,
2013-02-19 10:51:00,50.9,50.4,29.83,NNE,22,7.3,-999.0,98,-99.99,,,0.43,Acu-Link.com,2013-02-19 16:51:00,
2013-02-19 11:06:00,52.2,51.7,29.83,West,270,6.8,-999.0,98,-99.99,,,0.43,Acu-Link.com,2013-02-19 17:06:00,
2013-02-19 11:21:00,53.6,51.0,29.84,West,270,10.4,-999.0,91,-99.99,,,0.43,Acu-Link.com,2013-02-19 17:21:00,
2013-02-19 11:36:00,54.3,51.4,29.83,West,270,5.8,-999.0,90,-99.99,,,0.43,Acu-Link.com,2013-02-19 17:36:00,
2013-02-19 11:51:00,54.7,51.5,29.82,NNE,22,7.8,-999.0,89,-99.99,,,0.43,Acu-Link.com,2013-02-19 17:51:00,
2013-02-19 12:06:00,55.4,50.3,29.82,WNW,292,5.3,-999.0,83,-99.99,,,0.43,Acu-Link.com,2013-02-19 18:06:00,
2013-02-19 12:22:00,55.9,51.5,29.82,North,0,2.7,-999.0,85,-99.99,,,0.43,Acu-Link.com,2013-02-19 18:22:00,
2013-02-19 12:37:00,56.3,50.2,29.81,SSW,202,5.8,-999.0,80,-99.99,,,0.43,Acu-Link.com,2013-02-19 18:37:00,
2013-02-19 12:52:00,57.0,45.4,29.81,SW,225,3.2,-999.0,65,-99.99,,,0.43,Acu-Link.com,2013-02-19 18:52:00,
2013-02-19 13:07:00,56.5,44.5,29.81,North,0,2.7,-999.0,64,-99.99,,,0.43,Acu-Link.com,2013-02-19 19:07:00,
2013-02-19 13:22:00,57.0,44.9,29.80,West,270,10.4,-999.0,64,-99.99,,,0.43,Acu-Link.com,2013-02-19 19:22:00,
2013-02-19 13:37:00,57.2,39.2,29.81,West,270,6.3,-999.0,51,-99.99,,,0.43,Acu-Link.com,2013-02-19 19:37:00,
2013-02-19 13:52:00,56.8,38.4,29.81,NNW,337,11.9,-999.0,50,-99.99,,,0.43,Acu-Link.com,2013-02-19 19:52:00,
2013-02-19 14:07:00,56.8,40.3,29.81,West,270,4.2,-999.0,54,-99.99,,,0.43,Acu-Link.com,2013-02-19 20:07:00,
2013-02-19 14:22:00,57.4,42.3,29.81,SSE,157,4.7,-999.0,57,-99.99,,,0.43,Acu-Link.com,2013-02-19 20:22:00,
2013-02-19 14:38:00,57.0,39.1,29.81,NNW,337,8.9,-999.0,51,-99.99,,,0.43,Acu-Link.com,2013-02-19 20:38:00,
2013-02-19 14:53:00,56.7,38.3,29.81,WNW,292,9.9,-999.0,50,-99.99,,,0.43,Acu-Link.com,2013-02-19 20:53:00,
2013-02-19 15:08:00,56.3,37.9,29.82,West,270,6.8,-999.0,50,-99.99,,,0.43,Acu-Link.com,2013-02-19 21:08:00,
2013-02-19 15:23:00,55.4,34.4,29.83,SSW,202,7.3,-999.0,45,-99.99,,,0.43,Acu-Link.com,2013-02-19 21:23:00,
2013-02-19 15:38:00,55.2,33.7,29.83,WSW,247,14.5,-999.0,44,-99.99,,,0.43,Acu-Link.com,2013-02-19 21:38:00,
2013-02-19 15:53:00,54.3,34.5,29.83,West,270,9.4,-999.0,47,-99.99,,,0.43,Acu-Link.com,2013-02-19 21:53:00,
2013-02-19 16:09:00,54.7,34.3,29.83,SW,225,6.8,-999.0,46,-99.99,,,0.43,Acu-Link.com,2013-02-19 22:09:00,
2013-02-19 16:24:00,53.8,32.4,29.83,North,0,5.8,-999.0,44,-99.99,,,0.43,Acu-Link.com,2013-02-19 22:24:00,
2013-02-19 16:39:00,52.7,32.5,29.84,West,270,6.8,-999.0,46,-99.99,,,0.43,Acu-Link.com,2013-02-19 22:39:00,
2013-02-19 16:54:00,51.6,31.0,29.84,NW,315,7.3,-999.0,45,-99.99,,,0.43,Acu-Link.com,2013-02-19 22:54:00,
2013-02-19 17:09:00,50.7,30.1,29.85,SSW,202,2.7,-999.0,45,-99.99,,,0.43,Acu-Link.com,2013-02-19 23:09:00,
2013-02-19 17:24:00,49.6,29.7,29.86,West,270,5.8,-999.0,46,-99.99,,,0.43,Acu-Link.com,2013-02-19 23:24:00,
2013-02-19 17:39:00,48.6,31.3,29.86,North,0,3.2,-999.0,51,-99.99,,,0.43,Acu-Link.com,2013-02-19 23:39:00,
2013-02-19 17:54:00,47.8,31.5,29.87,NNW,337,5.8,-999.0,53,-99.99,,,0.43,Acu-Link.com,2013-02-19 23:54:00,
2013-02-19 18:10:00,47.3,31.0,29.88,North,0,6.8,-999.0,53,-99.99,,,0.43,Acu-Link.com,2013-02-20 00:10:00,
2013-02-19 18:25:00,46.2,31.4,29.88,North,0,2.7,-999.0,56,-99.99,,,0.43,Acu-Link.com,2013-02-20 00:25:00,
2013-02-19 18:40:00,46.0,29.8,29.88,North,0,4.2,-999.0,53,-99.99,,,0.43,Acu-Link.com,2013-02-20 00:40:00,
2013-02-19 18:55:00,45.3,30.1,29.89,WNW,292,4.7,-999.0,55,-99.99,,,0.43,Acu-Link.com,2013-02-20 00:55:00,
2013-02-19 19:10:00,45.5,30.7,29.88,NNW,337,4.7,-999.0,56,-99.99,,,0.43,Acu-Link.com,2013-02-20 01:10:00,
2013-02-19 19:26:00,44.8,30.5,29.88,North,0,6.3,-999.0,57,-99.99,,,0.43,Acu-Link.com,2013-02-20 01:26:00,
2013-02-19 19:41:00,44.4,30.6,29.89,North,0,2.7,-999.0,58,-99.99,,,0.43,Acu-Link.com,2013-02-20 01:41:00,
2013-02-19 19:56:00,43.3,29.9,29.88,North,0,1.1,-999.0,59,-99.99,,,0.43,Acu-Link.com,2013-02-20 01:56:00,
2013-02-19 20:11:00,42.1,30.0,29.89,North,0,0.0,-999.0,62,-99.99,,,0.43,Acu-Link.com,2013-02-20 02:11:00,
2013-02-19 20:26:00,41.0,30.9,29.89,North,0,1.1,-999.0,67,-99.99,,,0.43,Acu-Link.com,2013-02-20 02:26:00,
2013-02-19 20:41:00,37.9,31.7,29.90,North,0,2.2,-999.0,78,-99.99,,,0.43,Acu-Link.com,2013-02-20 02:41:00,
2013-02-19 20:56:00,37.2,31.0,29.91,North,0,1.1,-999.0,78,-99.99,,,0.43,Acu-Link.com,2013-02-20 02:56:00,
2013-02-19 21:11:00,35.8,31.2,29.93,North,0,0.0,-999.0,83,-99.99,,,0.43,Acu-Link.com,2013-02-20 03:11:00,
2013-02-19 21:26:00,35.6,31.5,29.93,North,0,0.0,-999.0,85,-99.99,,,0.43,Acu-Link.com,2013-02-20 03:26:00,
2013-02-19 22:26:00,36.1,31.1,29.93,NNW,337,1.1,-999.0,82,-99.99,,,0.43,Acu-Link.com,2013-02-20 04:26:00,